sensor_id;sensor_type;location;lat;lon;timestamp;temperature;humidity
5806;DHT22;2929;50.810;8.342;2023-01-10T00:01:48;4.10;99.90
5806;DHT22;2929;50.810;8.342;2023-01-10T00:04:15;4.10;99.90
5806;DHT22;2929;50.810;8.342;2023-01-10T00:06:42;4.10;99.90
5806;DHT22;2929;50.810;8.342;2023-01-10T00:09:10;4.10;99.90
5806;DHT22;2929;50.810;8.342;2023-01-10T00:11:37;4.20;99.90
5806;DHT22;2929;50.810;8.342;2023-01-10T00:14:22;4.30;99.90
5806;DHT22;2929;50.810;8.342;2023-01-10T00:16:49;4.20;99.90
5806;DHT22;2929;50.810;8.342;2023-01-10T00:19:15;4.20;99.90
5806;DHT22;2929;50.810;8.342;2023-01-10T00:21:42;4.30;99.90
5806;DHT22;2929;50.810;8.342;2023-01-10T00:24:11;4.30;99.90
5806;DHT22;2929;50.810;8.342;2023-01-10T00:26:44;4.30;99.90
5806;DHT22;2929;50.810;8.342;2023-01-10T00:29:16;4.30;99.90
5806;DHT22;2929;50.810;8.342;2023-01-10T00:31:43;4.30;99.90
5806;DHT22;2929;50.810;8.342;2023-01-10T00:34:10;4.30;99.90
5806;DHT22;2929;50.810;8.342;2023-01-10T00:36:37;4.30;99.90
5806;DHT22;2929;50.810;8.342;2023-01-10T00:39:04;4.20;99.90
5806;DHT22;2929;50.810;8.342;2023-01-10T00:41:39;4.20;99.90
5806;DHT22;2929;50.810;8.342;2023-01-10T00:44:24;4.20;99.90
5806;DHT22;2929;50.810;8.342;2023-01-10T00:46:51;4.20;99.90
5806;DHT22;2929;50.810;8.342;2023-01-10T00:49:19;4.30;99.90
5806;DHT22;2929;50.810;8.342;2023-01-10T00:51:46;4.40;99.90
5806;DHT22;2929;50.810;8.342;2023-01-10T00:54:13;4.40;99.90
5806;DHT22;2929;50.810;8.342;2023-01-10T00:56:41;4.40;99.90
5806;DHT22;2929;50.810;8.342;2023-01-10T00:59:08;4.40;99.90
5806;DHT22;2929;50.810;8.342;2023-01-10T01:01:35;4.50;99.90
5806;DHT22;2929;50.810;8.342;2023-01-10T01:04:02;4.40;99.90
5806;DHT22;2929;50.810;8.342;2023-01-10T01:06:29;4.50;99.90
5806;DHT22;2929;50.810;8.342;2023-01-10T01:08:56;4.50;99.90
5806;DHT22;2929;50.810;8.342;2023-01-10T01:11:23;4.40;99.90
5806;DHT22;2929;50.810;8.342;2023-01-10T01:13:52;4.40;99.90
5806;DHT22;2929;50.810;8.342;2023-01-10T01:16:19;4.40;99.90
5806;DHT22;2929;50.810;8.342;2023-01-10T01:18:45;4.40;99.90
5806;DHT22;2929;50.810;8.342;2023-01-10T01:21:12;4.40;99.90
5806;DHT22;2929;50.810;8.342;2023-01-10T01:23:39;4.40;99.90
5806;DHT22;2929;50.810;8.342;2023-01-10T01:26:07;4.30;99.90
5806;DHT22;2929;50.810;8.342;2023-01-10T01:28:36;4.40;99.90
5806;DHT22;2929;50.810;8.342;2023-01-10T01:31:08;4.40;99.90
5806;DHT22;2929;50.810;8.342;2023-01-10T01:33:36;4.40;99.90
5806;DHT22;2929;50.810;8.342;2023-01-10T01:36:07;4.50;99.90
5806;DHT22;2929;50.810;8.342;2023-01-10T01:38:34;4.50;99.90
5806;DHT22;2929;50.810;8.342;2023-01-10T01:41:01;4.50;99.90
5806;DHT22;2929;50.810;8.342;2023-01-10T01:43:29;4.50;99.90
5806;DHT22;2929;50.810;8.342;2023-01-10T01:45:58;4.50;99.90
5806;DHT22;2929;50.810;8.342;2023-01-10T01:48:51;4.50;99.90
5806;DHT22;2929;50.810;8.342;2023-01-10T01:51:22;4.50;99.90
5806;DHT22;2929;50.810;8.342;2023-01-10T01:53:54;4.40;99.90
5806;DHT22;2929;50.810;8.342;2023-01-10T01:56:24;4.30;99.90
5806;DHT22;2929;50.810;8.342;2023-01-10T01:58:56;4.30;99.90
5806;DHT22;2929;50.810;8.342;2023-01-10T02:01:27;4.30;99.90
5806;DHT22;2929;50.810;8.342;2023-01-10T02:04:00;4.30;99.90
5806;DHT22;2929;50.810;8.342;2023-01-10T02:06:28;4.20;99.90
5806;DHT22;2929;50.810;8.342;2023-01-10T02:09:02;4.20;99.90
5806;DHT22;2929;50.810;8.342;2023-01-10T02:11:31;4.30;99.90
5806;DHT22;2929;50.810;8.342;2023-01-10T02:13:58;4.20;99.90
5806;DHT22;2929;50.810;8.342;2023-01-10T02:16:25;4.30;99.90
5806;DHT22;2929;50.810;8.342;2023-01-10T02:18:52;4.30;99.90
5806;DHT22;2929;50.810;8.342;2023-01-10T02:21:36;4.20;99.90
5806;DHT22;2929;50.810;8.342;2023-01-10T02:27:23;4.20;99.90
5806;DHT22;2929;50.810;8.342;2023-01-10T02:32:58;4.10;99.90
5806;DHT22;2929;50.810;8.342;2023-01-10T02:35:53;4.00;99.90
5806;DHT22;2929;50.810;8.342;2023-01-10T02:38:40;3.90;99.90
5806;DHT22;2929;50.810;8.342;2023-01-10T02:41:15;3.80;99.90
5806;DHT22;2929;50.810;8.342;2023-01-10T02:43:48;3.80;99.90
5806;DHT22;2929;50.810;8.342;2023-01-10T02:46:18;3.70;99.90
5806;DHT22;2929;50.810;8.342;2023-01-10T02:48:51;3.70;99.90
5806;DHT22;2929;50.810;8.342;2023-01-10T02:51:21;3.70;99.90
5806;DHT22;2929;50.810;8.342;2023-01-10T02:53:51;3.70;99.90
5806;DHT22;2929;50.810;8.342;2023-01-10T02:56:54;3.80;99.90
5806;DHT22;2929;50.810;8.342;2023-01-10T02:59:46;3.80;99.90
5806;DHT22;2929;50.810;8.342;2023-01-10T03:02:23;3.80;99.90
5806;DHT22;2929;50.810;8.342;2023-01-10T03:05:02;3.80;99.90
5806;DHT22;2929;50.810;8.342;2023-01-10T03:07:36;3.80;99.90
5806;DHT22;2929;50.810;8.342;2023-01-10T03:10:06;3.90;99.90
5806;DHT22;2929;50.810;8.342;2023-01-10T03:12:38;3.90;99.90
5806;DHT22;2929;50.810;8.342;2023-01-10T03:15:11;4.00;99.90
5806;DHT22;2929;50.810;8.342;2023-01-10T03:17:40;4.00;99.90
5806;DHT22;2929;50.810;8.342;2023-01-10T03:20:11;4.00;99.90
5806;DHT22;2929;50.810;8.342;2023-01-10T03:22:39;4.10;99.90
5806;DHT22;2929;50.810;8.342;2023-01-10T03:25:10;4.10;99.90
5806;DHT22;2929;50.810;8.342;2023-01-10T03:27:42;4.10;99.90
5806;DHT22;2929;50.810;8.342;2023-01-10T03:30:16;4.00;99.90
5806;DHT22;2929;50.810;8.342;2023-01-10T03:32:44;4.10;99.90
5806;DHT22;2929;50.810;8.342;2023-01-10T03:35:13;4.10;99.90
5806;DHT22;2929;50.810;8.342;2023-01-10T03:37:44;4.20;99.90
5806;DHT22;2929;50.810;8.342;2023-01-10T03:40:15;4.20;99.90
5806;DHT22;2929;50.810;8.342;2023-01-10T03:42:47;4.20;99.90
5806;DHT22;2929;50.810;8.342;2023-01-10T03:45:38;4.20;99.90
5806;DHT22;2929;50.810;8.342;2023-01-10T03:48:09;4.10;99.90
5806;DHT22;2929;50.810;8.342;2023-01-10T03:50:39;4.10;99.90
5806;DHT22;2929;50.810;8.342;2023-01-10T03:53:08;4.10;99.90
5806;DHT22;2929;50.810;8.342;2023-01-10T03:55:37;4.20;99.90
5806;DHT22;2929;50.810;8.342;2023-01-10T03:58:05;4.20;99.90
5806;DHT22;2929;50.810;8.342;2023-01-10T04:00:32;4.20;99.90
5806;DHT22;2929;50.810;8.342;2023-01-10T04:02:59;4.20;99.90
5806;DHT22;2929;50.810;8.342;2023-01-10T04:05:26;4.20;99.90
5806;DHT22;2929;50.810;8.342;2023-01-10T04:07:55;4.20;99.90
5806;DHT22;2929;50.810;8.342;2023-01-10T04:10:22;4.10;99.90
5806;DHT22;2929;50.810;8.342;2023-01-10T04:12:51;4.20;99.90
5806;DHT22;2929;50.810;8.342;2023-01-10T04:15:18;4.20;99.90
5806;DHT22;2929;50.810;8.342;2023-01-10T04:17:47;4.20;99.90
5806;DHT22;2929;50.810;8.342;2023-01-10T04:20:14;4.20;99.90
5806;DHT22;2929;50.810;8.342;2023-01-10T04:22:42;4.20;99.90
5806;DHT22;2929;50.810;8.342;2023-01-10T04:25:11;4.10;99.90
5806;DHT22;2929;50.810;8.342;2023-01-10T04:27:38;4.10;99.90
5806;DHT22;2929;50.810;8.342;2023-01-10T04:30:06;4.30;99.90
5806;DHT22;2929;50.810;8.342;2023-01-10T04:32:34;4.30;99.90
5806;DHT22;2929;50.810;8.342;2023-01-10T04:35:01;4.30;99.90
5806;DHT22;2929;50.810;8.342;2023-01-10T04:37:28;4.30;99.90
5806;DHT22;2929;50.810;8.342;2023-01-10T04:39:55;4.20;99.90
5806;DHT22;2929;50.810;8.342;2023-01-10T04:42:23;4.30;99.90
5806;DHT22;2929;50.810;8.342;2023-01-10T04:44:50;4.20;99.90
5806;DHT22;2929;50.810;8.342;2023-01-10T04:47:17;4.20;99.90
5806;DHT22;2929;50.810;8.342;2023-01-10T04:49:44;4.20;99.90
5806;DHT22;2929;50.810;8.342;2023-01-10T04:52:11;4.20;99.90
5806;DHT22;2929;50.810;8.342;2023-01-10T04:54:38;4.20;99.90
5806;DHT22;2929;50.810;8.342;2023-01-10T04:57:05;4.20;99.90
5806;DHT22;2929;50.810;8.342;2023-01-10T04:59:33;4.10;99.90
5806;DHT22;2929;50.810;8.342;2023-01-10T05:02:00;4.20;99.90
5806;DHT22;2929;50.810;8.342;2023-01-10T05:04:27;4.10;99.90
5806;DHT22;2929;50.810;8.342;2023-01-10T05:06:54;4.10;99.90
5806;DHT22;2929;50.810;8.342;2023-01-10T05:09:22;4.10;99.90
5806;DHT22;2929;50.810;8.342;2023-01-10T05:11:49;4.10;99.90
5806;DHT22;2929;50.810;8.342;2023-01-10T05:14:16;4.10;99.90
5806;DHT22;2929;50.810;8.342;2023-01-10T05:16:44;4.20;99.90
5806;DHT22;2929;50.810;8.342;2023-01-10T05:19:11;4.20;99.90
5806;DHT22;2929;50.810;8.342;2023-01-10T05:21:38;4.30;99.90
5806;DHT22;2929;50.810;8.342;2023-01-10T05:24:06;4.30;99.90
5806;DHT22;2929;50.810;8.342;2023-01-10T05:26:33;4.30;99.90
5806;DHT22;2929;50.810;8.342;2023-01-10T05:29:00;4.30;99.90
5806;DHT22;2929;50.810;8.342;2023-01-10T05:31:27;4.30;99.90
5806;DHT22;2929;50.810;8.342;2023-01-10T05:33:55;4.30;99.90
5806;DHT22;2929;50.810;8.342;2023-01-10T05:36:22;4.20;99.90
5806;DHT22;2929;50.810;8.342;2023-01-10T05:38:49;4.20;99.90
5806;DHT22;2929;50.810;8.342;2023-01-10T05:41:16;4.20;99.90
5806;DHT22;2929;50.810;8.342;2023-01-10T05:43:43;4.10;99.90
5806;DHT22;2929;50.810;8.342;2023-01-10T05:46:10;4.20;99.90
5806;DHT22;2929;50.810;8.342;2023-01-10T05:48:37;4.20;99.90
5806;DHT22;2929;50.810;8.342;2023-01-10T05:51:06;4.10;99.90
5806;DHT22;2929;50.810;8.342;2023-01-10T05:53:33;4.10;99.90
5806;DHT22;2929;50.810;8.342;2023-01-10T05:56:01;4.10;99.90
5806;DHT22;2929;50.810;8.342;2023-01-10T05:58:29;4.10;99.90
5806;DHT22;2929;50.810;8.342;2023-01-10T06:00:56;4.10;99.90
5806;DHT22;2929;50.810;8.342;2023-01-10T06:03:24;4.10;99.90
5806;DHT22;2929;50.810;8.342;2023-01-10T06:05:51;4.10;99.90
5806;DHT22;2929;50.810;8.342;2023-01-10T06:08:20;4.10;99.90
5806;DHT22;2929;50.810;8.342;2023-01-10T06:10:47;4.10;99.90
5806;DHT22;2929;50.810;8.342;2023-01-10T06:13:15;4.10;99.90
5806;DHT22;2929;50.810;8.342;2023-01-10T06:15:42;4.10;99.90
5806;DHT22;2929;50.810;8.342;2023-01-10T06:18:09;4.20;99.90
5806;DHT22;2929;50.810;8.342;2023-01-10T06:20:36;4.20;99.90
5806;DHT22;2929;50.810;8.342;2023-01-10T06:23:03;4.20;99.90
5806;DHT22;2929;50.810;8.342;2023-01-10T06:25:32;4.10;99.90
5806;DHT22;2929;50.810;8.342;2023-01-10T06:28:01;4.10;99.90
5806;DHT22;2929;50.810;8.342;2023-01-10T06:30:29;4.10;99.90
5806;DHT22;2929;50.810;8.342;2023-01-10T06:32:59;4.30;99.90
5806;DHT22;2929;50.810;8.342;2023-01-10T06:35:26;4.20;99.90
5806;DHT22;2929;50.810;8.342;2023-01-10T06:37:53;4.20;99.90
5806;DHT22;2929;50.810;8.342;2023-01-10T06:40:20;4.20;99.90
5806;DHT22;2929;50.810;8.342;2023-01-10T06:42:49;4.20;99.90
5806;DHT22;2929;50.810;8.342;2023-01-10T06:45:16;4.20;99.90
5806;DHT22;2929;50.810;8.342;2023-01-10T06:47:43;4.20;99.90
5806;DHT22;2929;50.810;8.342;2023-01-10T06:50:11;4.30;99.90
5806;DHT22;2929;50.810;8.342;2023-01-10T06:52:38;4.30;99.90
5806;DHT22;2929;50.810;8.342;2023-01-10T06:55:07;4.30;99.90
5806;DHT22;2929;50.810;8.342;2023-01-10T06:57:34;4.20;99.90
5806;DHT22;2929;50.810;8.342;2023-01-10T07:00:06;4.20;99.90
5806;DHT22;2929;50.810;8.342;2023-01-10T07:02:34;4.20;99.90
5806;DHT22;2929;50.810;8.342;2023-01-10T07:05:01;4.20;99.90
5806;DHT22;2929;50.810;8.342;2023-01-10T07:07:28;4.20;99.90
5806;DHT22;2929;50.810;8.342;2023-01-10T07:09:55;4.20;99.90
5806;DHT22;2929;50.810;8.342;2023-01-10T07:12:24;4.20;99.90
5806;DHT22;2929;50.810;8.342;2023-01-10T07:14:51;4.20;99.90
5806;DHT22;2929;50.810;8.342;2023-01-10T07:17:19;4.10;99.90
5806;DHT22;2929;50.810;8.342;2023-01-10T07:19:46;4.10;99.90
5806;DHT22;2929;50.810;8.342;2023-01-10T07:22:13;4.10;99.90
5806;DHT22;2929;50.810;8.342;2023-01-10T07:24:40;4.10;99.90
5806;DHT22;2929;50.810;8.342;2023-01-10T07:27:07;4.20;99.90
5806;DHT22;2929;50.810;8.342;2023-01-10T07:29:34;4.10;99.90
5806;DHT22;2929;50.810;8.342;2023-01-10T07:32:01;4.10;99.90
5806;DHT22;2929;50.810;8.342;2023-01-10T07:34:30;4.10;99.90
5806;DHT22;2929;50.810;8.342;2023-01-10T07:36:57;4.10;99.90
5806;DHT22;2929;50.810;8.342;2023-01-10T07:39:24;4.10;99.90
5806;DHT22;2929;50.810;8.342;2023-01-10T07:41:51;4.10;99.90
5806;DHT22;2929;50.810;8.342;2023-01-10T07:44:20;4.10;99.90
5806;DHT22;2929;50.810;8.342;2023-01-10T07:46:47;4.10;99.90
5806;DHT22;2929;50.810;8.342;2023-01-10T07:49:14;4.10;99.90
5806;DHT22;2929;50.810;8.342;2023-01-10T07:51:43;4.10;99.90
5806;DHT22;2929;50.810;8.342;2023-01-10T07:54:10;4.10;99.90
5806;DHT22;2929;50.810;8.342;2023-01-10T07:56:37;4.10;99.90
5806;DHT22;2929;50.810;8.342;2023-01-10T07:59:04;4.10;99.90
5806;DHT22;2929;50.810;8.342;2023-01-10T08:01:31;4.10;99.90
5806;DHT22;2929;50.810;8.342;2023-01-10T08:03:58;4.20;99.90
5806;DHT22;2929;50.810;8.342;2023-01-10T08:06:25;4.10;99.90
5806;DHT22;2929;50.810;8.342;2023-01-10T08:08:53;4.10;99.90
5806;DHT22;2929;50.810;8.342;2023-01-10T08:11:20;4.10;99.90
5806;DHT22;2929;50.810;8.342;2023-01-10T08:13:47;4.10;99.90
5806;DHT22;2929;50.810;8.342;2023-01-10T08:16:14;4.10;99.90
5806;DHT22;2929;50.810;8.342;2023-01-10T08:18:41;4.10;99.90
5806;DHT22;2929;50.810;8.342;2023-01-10T08:21:09;4.10;99.90
5806;DHT22;2929;50.810;8.342;2023-01-10T08:23:36;4.10;99.90
5806;DHT22;2929;50.810;8.342;2023-01-10T08:26:05;4.10;99.90
5806;DHT22;2929;50.810;8.342;2023-01-10T08:28:32;4.10;99.90
5806;DHT22;2929;50.810;8.342;2023-01-10T08:31:04;4.10;99.90
5806;DHT22;2929;50.810;8.342;2023-01-10T08:33:31;4.10;99.90
5806;DHT22;2929;50.810;8.342;2023-01-10T08:35:58;4.10;99.90
5806;DHT22;2929;50.810;8.342;2023-01-10T08:38:25;4.10;99.90
5806;DHT22;2929;50.810;8.342;2023-01-10T08:40:55;4.20;99.90
5806;DHT22;2929;50.810;8.342;2023-01-10T08:43:23;4.20;99.90
5806;DHT22;2929;50.810;8.342;2023-01-10T08:45:50;4.10;99.90
5806;DHT22;2929;50.810;8.342;2023-01-10T08:48:17;4.10;99.90
5806;DHT22;2929;50.810;8.342;2023-01-10T08:50:44;4.20;99.90
5806;DHT22;2929;50.810;8.342;2023-01-10T08:53:11;4.20;99.90
5806;DHT22;2929;50.810;8.342;2023-01-10T08:55:39;4.20;99.90
5806;DHT22;2929;50.810;8.342;2023-01-10T08:58:06;4.20;99.90
5806;DHT22;2929;50.810;8.342;2023-01-10T09:00:34;4.20;99.90
5806;DHT22;2929;50.810;8.342;2023-01-10T09:03:01;4.20;99.90
5806;DHT22;2929;50.810;8.342;2023-01-10T09:05:28;4.20;99.90
5806;DHT22;2929;50.810;8.342;2023-01-10T09:07:57;4.20;99.90
5806;DHT22;2929;50.810;8.342;2023-01-10T09:10:26;4.20;99.90
5806;DHT22;2929;50.810;8.342;2023-01-10T09:12:53;4.20;99.90
5806;DHT22;2929;50.810;8.342;2023-01-10T09:15:20;4.20;99.90
5806;DHT22;2929;50.810;8.342;2023-01-10T09:17:51;4.30;99.90
5806;DHT22;2929;50.810;8.342;2023-01-10T09:20:18;4.30;99.90
5806;DHT22;2929;50.810;8.342;2023-01-10T09:22:45;4.30;99.90
5806;DHT22;2929;50.810;8.342;2023-01-10T09:25:12;4.30;99.90
5806;DHT22;2929;50.810;8.342;2023-01-10T09:27:39;4.30;99.90
5806;DHT22;2929;50.810;8.342;2023-01-10T09:30:08;4.40;99.90
5806;DHT22;2929;50.810;8.342;2023-01-10T09:32:35;4.40;99.90
5806;DHT22;2929;50.810;8.342;2023-01-10T09:35:04;4.40;99.90
5806;DHT22;2929;50.810;8.342;2023-01-10T09:37:31;4.40;99.90
5806;DHT22;2929;50.810;8.342;2023-01-10T09:39:59;4.40;99.90
5806;DHT22;2929;50.810;8.342;2023-01-10T09:42:48;4.40;99.90
5806;DHT22;2929;50.810;8.342;2023-01-10T09:45:22;4.40;99.90
5806;DHT22;2929;50.810;8.342;2023-01-10T09:47:56;4.40;99.90
5806;DHT22;2929;50.810;8.342;2023-01-10T09:50:33;4.50;99.90
5806;DHT22;2929;50.810;8.342;2023-01-10T09:53:04;4.50;99.90
5806;DHT22;2929;50.810;8.342;2023-01-10T09:55:36;4.50;99.90
5806;DHT22;2929;50.810;8.342;2023-01-10T09:58:08;4.50;99.90
5806;DHT22;2929;50.810;8.342;2023-01-10T10:00:39;4.50;99.90
5806;DHT22;2929;50.810;8.342;2023-01-10T10:03:19;4.50;99.90
5806;DHT22;2929;50.810;8.342;2023-01-10T10:05:48;4.50;99.90
5806;DHT22;2929;50.810;8.342;2023-01-10T10:08:17;4.50;99.90
5806;DHT22;2929;50.810;8.342;2023-01-10T10:11:01;4.50;99.90
5806;DHT22;2929;50.810;8.342;2023-01-10T10:13:39;4.50;99.90
5806;DHT22;2929;50.810;8.342;2023-01-10T10:16:18;4.50;99.90
5806;DHT22;2929;50.810;8.342;2023-01-10T10:18:56;4.50;99.90
5806;DHT22;2929;50.810;8.342;2023-01-10T10:21:34;4.50;99.90
5806;DHT22;2929;50.810;8.342;2023-01-10T10:24:18;4.60;99.90
5806;DHT22;2929;50.810;8.342;2023-01-10T10:26:55;4.60;99.90
5806;DHT22;2929;50.810;8.342;2023-01-10T10:29:46;4.60;99.90
5806;DHT22;2929;50.810;8.342;2023-01-10T10:32:35;4.60;99.90
5806;DHT22;2929;50.810;8.342;2023-01-10T10:35:08;4.60;99.90
5806;DHT22;2929;50.810;8.342;2023-01-10T10:37:41;4.60;99.90
5806;DHT22;2929;50.810;8.342;2023-01-10T10:40:16;4.60;99.90
5806;DHT22;2929;50.810;8.342;2023-01-10T10:42:46;4.60;99.90
5806;DHT22;2929;50.810;8.342;2023-01-10T10:45:17;4.60;99.90
5806;DHT22;2929;50.810;8.342;2023-01-10T10:47:49;4.60;99.90
5806;DHT22;2929;50.810;8.342;2023-01-10T10:50:24;4.70;99.90
5806;DHT22;2929;50.810;8.342;2023-01-10T10:52:55;4.60;99.90
5806;DHT22;2929;50.810;8.342;2023-01-10T10:55:28;4.70;99.90
5806;DHT22;2929;50.810;8.342;2023-01-10T10:57:56;4.70;99.90
5806;DHT22;2929;50.810;8.342;2023-01-10T11:00:23;4.70;99.90
5806;DHT22;2929;50.810;8.342;2023-01-10T11:02:54;4.70;99.90
5806;DHT22;2929;50.810;8.342;2023-01-10T11:05:31;4.80;99.90
5806;DHT22;2929;50.810;8.342;2023-01-10T11:08:03;4.80;99.90
5806;DHT22;2929;50.810;8.342;2023-01-10T11:10:33;4.80;99.90
5806;DHT22;2929;50.810;8.342;2023-01-10T11:13:11;4.80;99.90
5806;DHT22;2929;50.810;8.342;2023-01-10T11:15:42;4.90;99.90
5806;DHT22;2929;50.810;8.342;2023-01-10T11:18:11;4.90;99.90
5806;DHT22;2929;50.810;8.342;2023-01-10T11:20:47;4.90;99.90
5806;DHT22;2929;50.810;8.342;2023-01-10T11:23:24;5.00;99.90
5806;DHT22;2929;50.810;8.342;2023-01-10T11:25:55;5.00;99.90
5806;DHT22;2929;50.810;8.342;2023-01-10T11:28:28;5.00;99.90
5806;DHT22;2929;50.810;8.342;2023-01-10T11:30:55;5.00;99.90
5806;DHT22;2929;50.810;8.342;2023-01-10T11:33:27;5.00;99.90
5806;DHT22;2929;50.810;8.342;2023-01-10T11:35:58;5.00;99.90
5806;DHT22;2929;50.810;8.342;2023-01-10T11:38:28;5.10;99.90
5806;DHT22;2929;50.810;8.342;2023-01-10T11:40:58;5.10;99.90
5806;DHT22;2929;50.810;8.342;2023-01-10T11:43:29;5.10;99.90
5806;DHT22;2929;50.810;8.342;2023-01-10T11:45:58;5.10;99.90
5806;DHT22;2929;50.810;8.342;2023-01-10T11:48:38;5.10;99.90
5806;DHT22;2929;50.810;8.342;2023-01-10T11:51:16;5.20;99.90
5806;DHT22;2929;50.810;8.342;2023-01-10T11:53:46;5.20;99.90
5806;DHT22;2929;50.810;8.342;2023-01-10T11:56:23;5.20;99.90
5806;DHT22;2929;50.810;8.342;2023-01-10T11:58:51;5.30;99.90
5806;DHT22;2929;50.810;8.342;2023-01-10T12:01:27;5.30;99.90
5806;DHT22;2929;50.810;8.342;2023-01-10T12:03:55;5.40;99.90
5806;DHT22;2929;50.810;8.342;2023-01-10T12:06:22;5.40;99.90
5806;DHT22;2929;50.810;8.342;2023-01-10T12:08:51;5.40;99.90
5806;DHT22;2929;50.810;8.342;2023-01-10T12:11:27;5.40;99.90
5806;DHT22;2929;50.810;8.342;2023-01-10T12:13:56;5.30;99.90
5806;DHT22;2929;50.810;8.342;2023-01-10T12:16:25;5.30;99.90
5806;DHT22;2929;50.810;8.342;2023-01-10T12:18:54;5.30;99.90
5806;DHT22;2929;50.810;8.342;2023-01-10T12:21:34;5.30;99.90
5806;DHT22;2929;50.810;8.342;2023-01-10T12:24:10;5.30;99.90
5806;DHT22;2929;50.810;8.342;2023-01-10T12:26:38;5.30;99.90
5806;DHT22;2929;50.810;8.342;2023-01-10T12:29:11;5.30;99.90
5806;DHT22;2929;50.810;8.342;2023-01-10T12:31:40;5.30;99.90
5806;DHT22;2929;50.810;8.342;2023-01-10T12:34:13;5.30;99.90
5806;DHT22;2929;50.810;8.342;2023-01-10T12:36:47;5.30;99.90
5806;DHT22;2929;50.810;8.342;2023-01-10T12:39:20;5.30;99.90
5806;DHT22;2929;50.810;8.342;2023-01-10T12:41:55;5.30;99.90
5806;DHT22;2929;50.810;8.342;2023-01-10T12:44:43;5.30;99.90
5806;DHT22;2929;50.810;8.342;2023-01-10T12:47:18;5.30;99.90
5806;DHT22;2929;50.810;8.342;2023-01-10T12:49:51;5.20;99.90
5806;DHT22;2929;50.810;8.342;2023-01-10T12:52:28;5.30;99.90
5806;DHT22;2929;50.810;8.342;2023-01-10T12:54:57;5.30;99.90
5806;DHT22;2929;50.810;8.342;2023-01-10T12:57:29;5.30;99.90
5806;DHT22;2929;50.810;8.342;2023-01-10T13:00:03;5.20;99.90
5806;DHT22;2929;50.810;8.342;2023-01-10T13:02:47;5.20;99.90
5806;DHT22;2929;50.810;8.342;2023-01-10T13:05:18;5.30;99.90
5806;DHT22;2929;50.810;8.342;2023-01-10T13:07:47;5.30;99.90
5806;DHT22;2929;50.810;8.342;2023-01-10T13:10:18;5.30;99.90
5806;DHT22;2929;50.810;8.342;2023-01-10T13:12:51;5.20;99.90
5806;DHT22;2929;50.810;8.342;2023-01-10T13:15:22;5.30;99.90
5806;DHT22;2929;50.810;8.342;2023-01-10T13:17:57;5.30;99.90
5806;DHT22;2929;50.810;8.342;2023-01-10T13:20:34;5.20;99.90
5806;DHT22;2929;50.810;8.342;2023-01-10T13:23:13;5.20;99.90
5806;DHT22;2929;50.810;8.342;2023-01-10T13:25:53;5.20;99.90
5806;DHT22;2929;50.810;8.342;2023-01-10T13:28:24;5.10;99.90
5806;DHT22;2929;50.810;8.342;2023-01-10T13:30:54;5.10;99.90
5806;DHT22;2929;50.810;8.342;2023-01-10T13:33:25;5.10;99.90
5806;DHT22;2929;50.810;8.342;2023-01-10T13:35:55;5.10;99.90
5806;DHT22;2929;50.810;8.342;2023-01-10T13:38:27;5.10;99.90
5806;DHT22;2929;50.810;8.342;2023-01-10T13:41:04;5.00;99.90
5806;DHT22;2929;50.810;8.342;2023-01-10T13:43:38;5.00;99.90
5806;DHT22;2929;50.810;8.342;2023-01-10T13:46:34;5.00;99.90
5806;DHT22;2929;50.810;8.342;2023-01-10T13:52:38;5.00;99.90
5806;DHT22;2929;50.810;8.342;2023-01-10T13:55:26;5.10;99.90
5806;DHT22;2929;50.810;8.342;2023-01-10T13:57:57;5.10;99.90
5806;DHT22;2929;50.810;8.342;2023-01-10T14:00:46;5.10;99.90
5806;DHT22;2929;50.810;8.342;2023-01-10T14:03:47;5.00;99.90
5806;DHT22;2929;50.810;8.342;2023-01-10T14:06:20;5.10;99.90
5806;DHT22;2929;50.810;8.342;2023-01-10T14:08:59;5.10;99.90
5806;DHT22;2929;50.810;8.342;2023-01-10T14:11:29;5.10;99.90
5806;DHT22;2929;50.810;8.342;2023-01-10T14:14:01;5.00;99.90
5806;DHT22;2929;50.810;8.342;2023-01-10T14:16:34;5.10;99.90
5806;DHT22;2929;50.810;8.342;2023-01-10T14:19:05;5.00;99.90
5806;DHT22;2929;50.810;8.342;2023-01-10T14:21:38;5.10;99.90
5806;DHT22;2929;50.810;8.342;2023-01-10T14:24:20;5.00;99.90
5806;DHT22;2929;50.810;8.342;2023-01-10T14:26:49;5.00;99.90
5806;DHT22;2929;50.810;8.342;2023-01-10T14:29:19;5.00;99.90
5806;DHT22;2929;50.810;8.342;2023-01-10T14:31:48;5.00;99.90
5806;DHT22;2929;50.810;8.342;2023-01-10T14:34:20;5.00;99.90
5806;DHT22;2929;50.810;8.342;2023-01-10T14:36:51;5.00;99.90
5806;DHT22;2929;50.810;8.342;2023-01-10T14:39:20;4.90;99.90
5806;DHT22;2929;50.810;8.342;2023-01-10T14:41:50;4.90;99.90
5806;DHT22;2929;50.810;8.342;2023-01-10T14:44:22;4.90;99.90
5806;DHT22;2929;50.810;8.342;2023-01-10T14:46:56;4.90;99.90
5806;DHT22;2929;50.810;8.342;2023-01-10T14:49:25;4.90;99.90
5806;DHT22;2929;50.810;8.342;2023-01-10T14:51:54;4.90;99.90
5806;DHT22;2929;50.810;8.342;2023-01-10T14:54:26;5.00;99.90
5806;DHT22;2929;50.810;8.342;2023-01-10T14:56:54;4.90;99.90
5806;DHT22;2929;50.810;8.342;2023-01-10T14:59:25;4.90;99.90
5806;DHT22;2929;50.810;8.342;2023-01-10T15:01:54;4.90;99.90
5806;DHT22;2929;50.810;8.342;2023-01-10T15:04:24;4.80;99.90
5806;DHT22;2929;50.810;8.342;2023-01-10T15:06:54;4.90;99.90
5806;DHT22;2929;50.810;8.342;2023-01-10T15:09:22;4.80;99.90
5806;DHT22;2929;50.810;8.342;2023-01-10T15:11:50;4.80;99.90
5806;DHT22;2929;50.810;8.342;2023-01-10T15:14:19;4.80;99.90
5806;DHT22;2929;50.810;8.342;2023-01-10T15:16:51;4.80;99.90
5806;DHT22;2929;50.810;8.342;2023-01-10T15:19:21;4.80;99.90
5806;DHT22;2929;50.810;8.342;2023-01-10T15:21:49;4.80;99.90
5806;DHT22;2929;50.810;8.342;2023-01-10T15:24:24;4.80;99.90
5806;DHT22;2929;50.810;8.342;2023-01-10T15:26:51;4.70;99.90
5806;DHT22;2929;50.810;8.342;2023-01-10T15:29:21;4.70;99.90
5806;DHT22;2929;50.810;8.342;2023-01-10T15:31:51;4.70;99.90
5806;DHT22;2929;50.810;8.342;2023-01-10T15:34:22;4.70;99.90
5806;DHT22;2929;50.810;8.342;2023-01-10T15:36:53;4.70;99.90
5806;DHT22;2929;50.810;8.342;2023-01-10T15:39:22;4.70;99.90
5806;DHT22;2929;50.810;8.342;2023-01-10T15:41:54;4.70;99.90
5806;DHT22;2929;50.810;8.342;2023-01-10T15:44:36;4.60;99.90
5806;DHT22;2929;50.810;8.342;2023-01-10T15:47:26;4.70;99.90
5806;DHT22;2929;50.810;8.342;2023-01-10T15:49:57;4.60;99.90
5806;DHT22;2929;50.810;8.342;2023-01-10T15:52:24;4.60;99.90
5806;DHT22;2929;50.810;8.342;2023-01-10T15:54:51;4.60;99.90
5806;DHT22;2929;50.810;8.342;2023-01-10T15:57:25;4.60;99.90
5806;DHT22;2929;50.810;8.342;2023-01-10T15:59:54;4.60;99.90
5806;DHT22;2929;50.810;8.342;2023-01-10T16:02:29;4.60;99.90
5806;DHT22;2929;50.810;8.342;2023-01-10T16:04:58;4.60;99.90
5806;DHT22;2929;50.810;8.342;2023-01-10T16:07:33;4.50;99.90
5806;DHT22;2929;50.810;8.342;2023-01-10T16:10:03;4.60;99.90
5806;DHT22;2929;50.810;8.342;2023-01-10T16:12:35;4.60;99.90
5806;DHT22;2929;50.810;8.342;2023-01-10T16:15:22;4.60;99.90
5806;DHT22;2929;50.810;8.342;2023-01-10T16:17:51;4.60;99.90
5806;DHT22;2929;50.810;8.342;2023-01-10T16:20:21;4.60;99.90
5806;DHT22;2929;50.810;8.342;2023-01-10T16:22:49;4.60;99.90
5806;DHT22;2929;50.810;8.342;2023-01-10T16:25:21;4.60;99.90
5806;DHT22;2929;50.810;8.342;2023-01-10T16:27:49;4.60;99.90
5806;DHT22;2929;50.810;8.342;2023-01-10T16:30:21;4.60;99.90
5806;DHT22;2929;50.810;8.342;2023-01-10T16:32:51;4.70;99.90
5806;DHT22;2929;50.810;8.342;2023-01-10T16:35:19;4.60;99.90
5806;DHT22;2929;50.810;8.342;2023-01-10T16:37:46;4.60;99.90
5806;DHT22;2929;50.810;8.342;2023-01-10T16:40:17;4.70;99.90
5806;DHT22;2929;50.810;8.342;2023-01-10T16:42:47;4.70;99.90
5806;DHT22;2929;50.810;8.342;2023-01-10T16:45:31;4.70;99.90
5806;DHT22;2929;50.810;8.342;2023-01-10T16:48:00;4.70;99.90
5806;DHT22;2929;50.810;8.342;2023-01-10T16:50:27;4.70;99.90